createdAt,value
2019-03-18T00:00:38.201Z,26.00
2019-03-18T00:03:11.021Z,26.10
2019-03-18T00:05:43.231Z,26.10
2019-03-18T00:08:15.623Z,26.20
2019-03-18T00:10:47.867Z,26.30
2019-03-18T00:13:20.505Z,26.30
2019-03-18T00:15:53.034Z,26.40
2019-03-18T00:18:25.765Z,26.40
2019-03-18T00:20:58.296Z,26.50
2019-03-18T00:23:30.803Z,26.60
2019-03-18T00:26:03.324Z,26.70
2019-03-18T00:28:36.035Z,26.70
2019-03-18T00:31:08.502Z,26.80
2019-03-18T00:33:41.059Z,26.90
2019-03-18T00:36:13.496Z,26.90
2019-03-18T00:38:46.042Z,27.00
2019-03-18T00:41:18.657Z,27.00
2019-03-18T00:43:51.686Z,27.00
2019-03-18T00:46:24.002Z,27.10
2019-03-18T00:48:56.570Z,27.20
2019-03-18T00:51:29.225Z,27.30
2019-03-18T00:54:01.727Z,27.30
2019-03-18T00:56:34.451Z,27.50
2019-03-18T00:59:07.097Z,27.50
2019-03-18T01:01:39.538Z,27.50
2019-03-18T01:04:11.982Z,27.50
2019-03-18T01:06:44.690Z,27.60
2019-03-18T01:09:17.344Z,27.70
2019-03-18T01:11:49.935Z,27.80
2019-03-18T01:14:22.706Z,27.90
2019-03-18T01:16:55.200Z,28.10
2019-03-18T01:25:46.246Z,28.10
2019-03-18T01:28:18.601Z,28.30
2019-03-18T01:30:51.544Z,28.30
2019-03-18T01:33:24.189Z,28.40
2019-03-18T01:36:16.968Z,28.50
2019-03-18T01:38:50.064Z,28.60
2019-03-18T01:41:22.996Z,28.60
2019-03-18T01:43:55.501Z,28.70
2019-03-18T01:46:28.624Z,29.00
2019-03-18T01:49:01.481Z,28.90
2019-03-18T01:51:34.475Z,28.90
2019-03-18T01:54:07.271Z,29.00
2019-03-18T01:56:40.014Z,29.20
2019-03-18T01:59:13.373Z,29.10
2019-03-18T02:01:46.085Z,29.30
2019-03-18T02:04:18.793Z,29.30
2019-03-18T02:06:51.732Z,29.50
2019-03-18T02:09:24.541Z,29.70
2019-03-18T02:11:57.136Z,29.70
2019-03-18T02:14:30.218Z,29.80
2019-03-18T02:17:03.181Z,30.00
2019-03-18T02:19:36.023Z,30.30
2019-03-18T02:22:09.397Z,30.40
2019-03-18T02:25:02.582Z,30.50
2019-03-18T02:27:36.484Z,30.50
2019-03-18T02:30:11.456Z,30.70
2019-03-18T02:32:44.336Z,30.60
2019-03-18T02:35:17.058Z,30.80
2019-03-18T02:38:01.859Z,31.00
2019-03-18T02:40:34.715Z,31.10
2019-03-18T02:43:07.217Z,31.30
2019-03-18T02:45:41.510Z,31.40
2019-03-18T02:48:14.288Z,31.60
2019-03-18T02:50:46.829Z,31.60
2019-03-18T02:53:19.804Z,31.60
2019-03-18T02:55:52.523Z,31.70
2019-03-18T02:58:25.578Z,31.80
2019-03-18T03:00:58.351Z,32.00
2019-03-18T03:03:30.974Z,32.20
2019-03-18T03:06:03.536Z,32.30
2019-03-18T03:08:36.184Z,32.20
2019-03-18T03:11:08.826Z,32.40
2019-03-18T03:13:41.129Z,32.60
2019-03-18T03:16:25.659Z,32.80
2019-03-18T03:18:47.455Z,32.70
2019-03-18T03:21:20.256Z,32.80
2019-03-18T03:23:52.653Z,33.30
2019-03-18T03:26:25.171Z,33.10
2019-03-18T03:28:57.609Z,33.10
2019-03-18T03:31:30.223Z,33.10
2019-03-18T03:34:03.149Z,33.30
2019-03-18T03:36:36.612Z,33.30
2019-03-18T03:39:09.674Z,33.60
2019-03-18T03:41:42.307Z,33.70
2019-03-18T03:44:14.969Z,33.90
2019-03-18T03:46:47.452Z,33.90
2019-03-18T03:49:19.934Z,34.00
2019-03-18T03:51:52.205Z,34.00
2019-03-18T03:54:25.192Z,34.00
2019-03-18T03:56:57.612Z,34.00
2019-03-18T03:59:30.228Z,34.20
2019-03-18T04:02:03.053Z,34.60
2019-03-18T04:04:35.956Z,34.40
2019-03-18T04:07:08.480Z,34.80
2019-03-18T04:09:41.492Z,34.80
2019-03-18T04:12:15.275Z,35.10
2019-03-18T04:14:47.984Z,35.30
2019-03-18T04:17:20.315Z,35.30
2019-03-18T04:19:52.888Z,34.80
2019-03-18T04:22:25.301Z,35.20
2019-03-18T04:24:58.062Z,35.50
2019-03-18T04:27:30.371Z,35.60
2019-03-18T04:30:03.096Z,35.70
2019-03-18T04:32:35.478Z,35.80
2019-03-18T04:35:08.960Z,35.50
2019-03-18T04:37:41.198Z,35.90
2019-03-18T04:40:14.149Z,36.00
2019-03-18T04:42:46.550Z,36.00
2019-03-18T04:45:18.908Z,35.80
2019-03-18T04:47:51.281Z,36.10
2019-03-18T04:50:23.773Z,36.30
2019-03-18T04:52:55.939Z,36.40
2019-03-18T04:55:28.457Z,36.40
2019-03-18T04:58:00.878Z,36.50
2019-03-18T05:00:33.577Z,36.50
2019-03-18T05:03:06.250Z,36.90
2019-03-18T05:05:38.900Z,37.20
2019-03-18T05:08:11.198Z,37.10
2019-03-18T05:10:43.816Z,37.00
2019-03-18T05:13:16.033Z,37.30
2019-03-18T05:15:48.425Z,37.20
2019-03-18T05:18:22.619Z,36.70
2019-03-18T05:20:54.959Z,37.30
2019-03-18T05:23:27.386Z,37.60
2019-03-18T05:26:00.006Z,37.70
2019-03-18T05:28:32.460Z,37.90
2019-03-18T05:31:05.062Z,37.80
2019-03-18T05:33:56.618Z,37.40
2019-03-18T05:36:29.277Z,37.80
2019-03-18T05:39:01.607Z,37.20
2019-03-18T05:41:34.463Z,37.70
2019-03-18T05:44:08.099Z,37.80
2019-03-18T05:46:40.987Z,37.20
2019-03-18T05:49:13.718Z,37.60
2019-03-18T05:51:46.254Z,37.50
2019-03-18T05:54:18.770Z,37.80
2019-03-18T05:56:51.796Z,38.00
2019-03-18T05:59:24.160Z,38.30
2019-03-18T06:01:56.595Z,38.70
2019-03-18T06:04:29.333Z,38.10
2019-03-18T06:07:01.831Z,37.60
2019-03-18T06:09:34.862Z,37.70
2019-03-18T06:12:07.796Z,37.70
2019-03-18T06:14:40.241Z,37.00
2019-03-18T06:17:12.683Z,37.30
2019-03-18T06:19:45.187Z,37.80
2019-03-18T06:22:17.518Z,38.10
2019-03-18T06:24:51.198Z,38.50
2019-03-18T06:27:23.787Z,38.70
2019-03-18T06:29:56.197Z,39.10
2019-03-18T06:32:28.523Z,38.60
2019-03-18T06:35:01.300Z,38.10
2019-03-18T06:37:35.192Z,38.00
2019-03-18T06:40:10.604Z,38.50
2019-03-18T06:42:43.110Z,38.70
2019-03-18T06:45:15.686Z,37.80
2019-03-18T06:47:47.841Z,37.50
2019-03-18T06:50:20.526Z,37.10
2019-03-18T06:52:52.723Z,37.40
2019-03-18T06:55:25.380Z,37.70
2019-03-18T06:57:57.740Z,38.20
2019-03-18T07:00:30.205Z,38.60
2019-03-18T07:03:03.118Z,38.60
2019-03-18T07:05:35.814Z,38.90
2019-03-18T07:08:08.340Z,39.00
2019-03-18T07:10:41.647Z,39.00
2019-03-18T07:13:14.032Z,39.00
2019-03-18T07:15:46.305Z,38.10
2019-03-18T07:18:19.191Z,37.70
2019-03-18T07:20:51.758Z,37.70
2019-03-18T07:23:24.431Z,38.30
2019-03-18T07:25:57.031Z,38.90
2019-03-18T07:28:30.431Z,39.10
2019-03-18T07:31:02.770Z,39.20
2019-03-18T07:33:35.141Z,39.20
2019-03-18T07:36:08.032Z,39.00
2019-03-18T07:38:40.420Z,38.80
2019-03-18T07:41:12.946Z,38.40
2019-03-18T07:43:45.142Z,38.80
2019-03-18T07:46:17.544Z,39.10
2019-03-18T07:48:49.703Z,38.90
2019-03-18T07:51:22.222Z,37.90
2019-03-18T07:53:54.650Z,38.30
2019-03-18T07:56:27.085Z,38.90
2019-03-18T07:59:00.742Z,39.00
2019-03-18T08:01:33.258Z,39.10
2019-03-18T08:04:05.983Z,39.00
2019-03-18T08:06:38.384Z,39.10
2019-03-18T08:09:11.280Z,39.30
2019-03-18T08:11:43.819Z,39.30
2019-03-18T08:14:16.156Z,39.10
2019-03-18T08:16:48.507Z,39.20
2019-03-18T08:19:20.727Z,39.60
2019-03-18T08:21:52.950Z,39.50
2019-03-18T08:24:25.913Z,39.30
2019-03-18T08:26:59.533Z,38.90
2019-03-18T08:29:32.416Z,38.80
2019-03-18T08:32:06.573Z,38.90
2019-03-18T08:34:40.091Z,39.00
2019-03-18T08:37:12.660Z,39.00
2019-03-18T08:39:45.267Z,39.20
2019-03-18T08:42:17.982Z,38.90
2019-03-18T08:44:50.522Z,39.00
2019-03-18T08:47:23.299Z,39.00
2019-03-18T08:49:55.491Z,39.00
2019-03-18T08:52:28.160Z,39.00
2019-03-18T08:55:01.465Z,38.50
2019-03-18T08:57:33.980Z,38.20
2019-03-18T09:00:09.109Z,38.60
2019-03-18T09:02:41.852Z,38.80
2019-03-18T09:05:14.994Z,38.90
2019-03-18T09:07:47.474Z,38.20
2019-03-18T09:10:20.659Z,37.60
2019-03-18T09:12:53.054Z,38.20
2019-03-18T09:15:25.528Z,38.50
2019-03-18T09:17:58.166Z,38.60
2019-03-18T09:20:30.860Z,38.40
2019-03-18T09:23:03.483Z,38.30
2019-03-18T09:25:35.844Z,38.30
2019-03-18T09:28:08.194Z,38.40
2019-03-18T09:30:41.080Z,38.20
2019-03-18T09:33:13.390Z,38.30
2019-03-18T09:35:45.912Z,38.10
2019-03-18T09:38:18.675Z,38.00
2019-03-18T09:40:52.595Z,37.80
2019-03-18T09:43:25.384Z,37.80
2019-03-18T09:45:58.334Z,37.80
2019-03-18T09:48:31.028Z,37.80
2019-03-18T09:51:03.858Z,37.80
2019-03-18T09:53:37.611Z,37.70
2019-03-18T09:56:10.221Z,37.70
2019-03-18T09:58:42.859Z,37.70
2019-03-18T10:01:15.402Z,37.50
2019-03-18T10:03:47.856Z,37.40
2019-03-18T10:06:20.402Z,37.40
2019-03-18T10:08:52.929Z,37.20
2019-03-18T10:11:25.486Z,37.20
2019-03-18T10:13:58.069Z,37.10
2019-03-18T10:16:30.495Z,36.90
2019-03-18T10:19:02.941Z,36.80
2019-03-18T10:21:35.268Z,36.80
2019-03-18T10:24:19.985Z,36.70
2019-03-18T10:26:52.640Z,36.60
2019-03-18T10:29:25.317Z,36.50
2019-03-18T10:31:57.753Z,36.50
2019-03-18T10:34:30.649Z,36.40
2019-03-18T10:37:03.193Z,36.40
2019-03-18T10:39:35.707Z,36.30
2019-03-18T10:42:08.020Z,36.20
2019-03-18T10:44:40.448Z,36.20
2019-03-18T10:47:12.826Z,36.10
2019-03-18T10:49:46.616Z,36.00
2019-03-18T10:52:19.208Z,35.90
2019-03-18T10:54:51.770Z,35.90
2019-03-18T10:57:25.256Z,35.80
2019-03-18T10:59:58.036Z,35.60
2019-03-18T11:02:30.671Z,35.60
2019-03-18T11:05:03.164Z,35.50
2019-03-18T11:07:35.733Z,35.40
2019-03-18T11:10:12.568Z,35.30
2019-03-18T11:12:44.683Z,35.30
2019-03-18T11:15:18.911Z,35.20
2019-03-18T11:17:51.480Z,35.20
2019-03-18T11:20:23.695Z,35.10
2019-03-18T11:22:56.184Z,34.90
2019-03-18T11:25:28.755Z,34.80
2019-03-18T11:28:01.406Z,34.70
2019-03-18T11:30:36.647Z,34.70
2019-03-18T11:33:09.627Z,34.70
2019-03-18T11:35:42.255Z,34.60
2019-03-18T11:38:15.060Z,34.50
2019-03-18T11:40:47.635Z,34.50
2019-03-18T11:43:20.586Z,34.40
2019-03-18T11:45:54.107Z,34.30
2019-03-18T11:48:26.759Z,34.30
2019-03-18T11:50:59.068Z,34.30
2019-03-18T11:53:31.592Z,34.20
2019-03-18T11:56:03.818Z,34.10
2019-03-18T11:58:36.322Z,34.00
2019-03-18T12:01:08.624Z,33.90
2019-03-18T12:03:41.305Z,33.90
2019-03-18T12:06:32.662Z,33.90
2019-03-18T12:09:05.495Z,33.90
2019-03-18T12:11:37.833Z,33.80
2019-03-18T12:14:10.047Z,33.70
2019-03-18T12:16:42.413Z,33.70
2019-03-18T12:19:15.117Z,33.60
2019-03-18T12:21:47.685Z,33.60
2019-03-18T12:24:20.426Z,33.50
2019-03-18T12:26:52.934Z,33.60
2019-03-18T12:29:25.555Z,33.50
2019-03-18T12:31:58.312Z,33.50
2019-03-18T12:34:31.649Z,33.50
2019-03-18T12:37:16.719Z,33.40
2019-03-18T12:39:49.369Z,33.40
2019-03-18T12:42:21.768Z,33.30
2019-03-18T12:44:54.380Z,33.20
2019-03-18T12:47:26.615Z,33.20
2019-03-18T12:49:59.241Z,33.10
2019-03-18T12:52:31.930Z,33.00
2019-03-18T12:55:04.714Z,33.00
2019-03-18T12:57:39.831Z,32.90
2019-03-18T13:00:15.762Z,33.00
2019-03-18T13:02:47.948Z,32.90
2019-03-18T13:05:20.781Z,32.80
2019-03-18T13:07:53.026Z,32.80
2019-03-18T13:10:25.265Z,32.60
2019-03-18T13:12:57.746Z,32.30
2019-03-18T13:15:31.131Z,32.20
2019-03-18T13:18:03.665Z,32.20
2019-03-18T13:20:36.431Z,32.20
2019-03-18T13:23:08.962Z,32.30
2019-03-18T13:25:41.271Z,32.40
2019-03-18T13:28:13.679Z,32.40
2019-03-18T13:30:47.009Z,32.30
2019-03-18T13:33:19.788Z,32.30
2019-03-18T13:35:53.540Z,32.30
2019-03-18T13:38:26.323Z,32.20
2019-03-18T13:40:59.200Z,31.90
2019-03-18T13:43:31.369Z,31.90
2019-03-18T13:46:04.154Z,31.80
2019-03-18T13:48:36.465Z,31.60
2019-03-18T13:51:20.417Z,31.70
2019-03-18T13:53:43.922Z,31.80
2019-03-18T13:56:17.471Z,31.70
2019-03-18T13:58:49.972Z,31.60
2019-03-18T14:01:22.991Z,31.60
2019-03-18T14:03:55.469Z,31.40
2019-03-18T14:06:28.548Z,31.60
2019-03-18T14:09:01.169Z,31.60
2019-03-18T14:11:34.963Z,31.50
2019-03-18T14:14:08.640Z,31.30
2019-03-18T14:16:41.837Z,31.30
2019-03-18T14:19:14.530Z,31.30
2019-03-18T14:21:47.051Z,31.30
2019-03-18T14:24:19.475Z,31.30
2019-03-18T14:26:51.956Z,31.20
2019-03-18T14:29:24.468Z,31.20
2019-03-18T14:31:57.275Z,31.00
2019-03-18T14:34:29.944Z,31.10
2019-03-18T14:37:02.469Z,31.10
2019-03-18T14:39:34.841Z,31.00
2019-03-18T14:42:07.905Z,31.10
2019-03-18T14:44:40.351Z,31.10
2019-03-18T14:47:13.062Z,30.90
2019-03-18T14:49:46.390Z,30.80
2019-03-18T14:52:19.415Z,30.80
2019-03-18T14:54:52.094Z,30.80
2019-03-18T14:57:24.659Z,30.90
2019-03-18T14:59:57.029Z,30.70
2019-03-18T15:02:29.624Z,30.70
2019-03-18T15:05:02.545Z,30.60
2019-03-18T15:07:35.158Z,30.50
2019-03-18T15:10:09.672Z,30.40
2019-03-18T15:12:42.171Z,30.30
2019-03-18T15:15:17.576Z,30.30
2019-03-18T15:17:50.087Z,30.30
2019-03-18T15:20:24.850Z,30.30
2019-03-18T15:22:57.286Z,30.30
2019-03-18T15:25:32.965Z,30.20
2019-03-18T15:28:06.006Z,30.00
2019-03-18T15:30:38.131Z,29.80
2019-03-18T15:33:10.555Z,29.70
2019-03-18T15:35:42.863Z,29.60
2019-03-18T15:38:15.473Z,29.60
2019-03-18T15:40:47.594Z,29.50
2019-03-18T15:43:20.257Z,29.40
2019-03-18T15:45:52.726Z,29.40
2019-03-18T15:48:25.398Z,29.40
2019-03-18T15:50:57.611Z,29.40
2019-03-18T15:53:29.866Z,29.40
2019-03-18T15:56:02.471Z,29.50
2019-03-18T15:58:35.131Z,29.30
2019-03-18T16:01:07.429Z,29.30
2019-03-18T16:03:40.675Z,29.30
2019-03-18T16:06:12.848Z,29.20
2019-03-18T16:08:45.286Z,29.10
2019-03-18T16:11:17.487Z,29.10
2019-03-18T16:13:50.149Z,29.10
2019-03-18T16:16:22.490Z,29.10
2019-03-18T16:18:55.126Z,29.00
2019-03-18T16:21:28.454Z,29.00
2019-03-18T16:24:00.838Z,28.90
2019-03-18T16:26:33.448Z,28.80
2019-03-18T16:29:06.321Z,28.90
2019-03-18T16:31:38.994Z,28.90
2019-03-18T16:34:11.353Z,29.00
2019-03-18T16:36:43.994Z,28.90
2019-03-18T16:39:16.600Z,28.80
2019-03-18T16:41:49.184Z,28.70
2019-03-18T16:44:21.561Z,28.70
2019-03-18T16:46:53.814Z,28.60
2019-03-18T16:49:26.643Z,28.60
2019-03-18T16:51:59.091Z,28.50
2019-03-18T16:54:31.806Z,28.50
2019-03-18T16:57:04.092Z,28.60
2019-03-18T16:59:36.528Z,28.50
2019-03-18T17:02:09.362Z,28.60
2019-03-18T17:04:42.667Z,28.40
2019-03-18T17:07:15.160Z,28.40
2019-03-18T17:09:47.910Z,28.40
2019-03-18T17:12:20.176Z,28.40
2019-03-18T17:14:52.600Z,28.40
2019-03-18T17:17:25.263Z,28.50
2019-03-18T17:19:57.741Z,28.40
2019-03-18T17:22:30.396Z,28.40
2019-03-18T17:25:02.804Z,28.40
2019-03-18T17:27:35.780Z,28.40
2019-03-18T17:30:10.872Z,28.30
2019-03-18T17:32:45.220Z,28.40
2019-03-18T17:35:18.072Z,28.50
2019-03-18T17:37:50.565Z,28.60
2019-03-18T17:40:23.695Z,28.50
2019-03-18T17:42:56.100Z,28.40
2019-03-18T17:45:28.762Z,28.40
2019-03-18T17:48:01.179Z,28.50
2019-03-18T17:50:34.151Z,28.50
2019-03-18T17:53:06.563Z,28.30
2019-03-18T17:55:39.517Z,28.20
2019-03-18T17:58:12.027Z,28.20
2019-03-18T18:00:45.656Z,28.20
2019-03-18T18:03:18.057Z,28.20
2019-03-18T18:05:51.557Z,28.20
2019-03-18T18:08:24.504Z,28.20
2019-03-18T18:10:57.493Z,28.10
2019-03-18T18:13:29.855Z,28.10
2019-03-18T18:16:02.477Z,28.00
2019-03-18T18:18:34.896Z,28.10
2019-03-18T18:21:07.906Z,28.20
2019-03-18T18:23:40.273Z,28.30
2019-03-18T18:26:12.722Z,28.20
2019-03-18T18:28:45.013Z,28.30
2019-03-18T18:31:17.793Z,28.10
2019-03-18T18:33:50.293Z,28.20
2019-03-18T18:36:25.197Z,28.10
2019-03-18T18:38:56.539Z,28.20
2019-03-18T18:41:29.191Z,28.00
2019-03-18T18:44:01.809Z,28.00
2019-03-18T18:46:34.770Z,28.00
2019-03-18T18:49:07.396Z,28.10
2019-03-18T18:51:39.988Z,27.90
2019-03-18T18:54:12.866Z,27.80
2019-03-18T18:56:45.147Z,27.80
2019-03-18T18:59:17.821Z,27.90
2019-03-18T19:01:49.949Z,27.90
2019-03-18T19:04:22.720Z,27.90
2019-03-18T19:06:55.065Z,28.00
2019-03-18T19:09:27.795Z,28.10
2019-03-18T19:12:00.230Z,28.00
2019-03-18T19:14:32.764Z,28.00
2019-03-18T19:17:05.079Z,28.00
2019-03-18T19:19:38.069Z,27.80
2019-03-18T19:22:10.505Z,27.60
2019-03-18T19:24:42.894Z,27.70
2019-03-18T19:27:15.506Z,27.50
2019-03-18T19:29:48.188Z,27.50
2019-03-18T19:32:21.095Z,27.70
2019-03-18T19:34:54.683Z,27.70
2019-03-18T19:37:27.316Z,27.80
2019-03-18T19:40:00.590Z,27.80
2019-03-18T19:42:33.579Z,27.70
2019-03-18T19:45:07.734Z,27.60
2019-03-18T19:47:41.054Z,27.30
2019-03-18T19:50:15.824Z,27.40
2019-03-18T19:52:48.111Z,27.50
2019-03-18T19:55:20.639Z,27.50
2019-03-18T19:57:53.156Z,27.60
2019-03-18T20:00:27.800Z,27.50
2019-03-18T20:03:00.269Z,27.40
2019-03-18T20:05:32.907Z,27.30
2019-03-18T20:08:05.391Z,27.30
2019-03-18T20:10:37.816Z,27.20
2019-03-18T20:13:10.230Z,27.20
2019-03-18T20:15:42.964Z,27.20
2019-03-18T20:18:15.433Z,27.10
2019-03-18T20:20:48.078Z,27.00
2019-03-18T20:23:20.591Z,27.00
2019-03-18T20:25:53.406Z,27.00
2019-03-18T20:28:25.827Z,27.00
2019-03-18T20:30:58.307Z,27.10
2019-03-18T20:33:30.656Z,27.00
2019-03-18T20:36:03.398Z,26.90
2019-03-18T20:38:35.775Z,26.70
2019-03-18T20:41:08.717Z,26.60
2019-03-18T20:43:41.039Z,26.60
2019-03-18T20:46:13.595Z,26.70
2019-03-18T20:48:45.992Z,26.50
2019-03-18T20:51:18.778Z,26.40
2019-03-18T20:53:51.429Z,26.50
2019-03-18T20:56:24.224Z,26.60
2019-03-18T20:58:56.714Z,26.60
2019-03-18T21:01:29.591Z,26.30
2019-03-18T21:04:02.369Z,26.20
2019-03-18T21:06:34.879Z,26.00
2019-03-18T21:09:09.019Z,26.00
2019-03-18T21:11:41.527Z,25.90
2019-03-18T21:14:14.237Z,26.00
2019-03-18T21:16:46.626Z,26.00
2019-03-18T21:19:19.000Z,26.10
2019-03-18T21:21:51.606Z,26.40
2019-03-18T21:24:24.327Z,26.30
2019-03-18T21:26:57.012Z,26.20
2019-03-18T21:29:29.390Z,26.10
2019-03-18T21:32:21.110Z,26.10
2019-03-18T21:34:53.688Z,26.30
2019-03-18T21:37:27.238Z,26.20
2019-03-18T21:39:59.704Z,26.10
2019-03-18T21:42:32.033Z,26.20
2019-03-18T21:45:04.726Z,26.30
2019-03-18T21:47:37.077Z,26.50
2019-03-18T21:50:10.990Z,26.40
2019-03-18T21:52:43.479Z,26.30
2019-03-18T21:55:17.012Z,26.30
2019-03-18T21:57:49.793Z,26.40
2019-03-18T22:00:23.965Z,26.20
2019-03-18T22:02:56.403Z,26.30
2019-03-18T22:05:28.859Z,26.20
2019-03-18T22:08:01.448Z,26.20
2019-03-18T22:10:33.777Z,26.20
2019-03-18T22:13:06.561Z,26.20
2019-03-18T22:15:38.988Z,26.20
2019-03-18T22:18:12.225Z,26.10
2019-03-18T22:20:44.795Z,26.20
2019-03-18T22:23:17.505Z,26.30
2019-03-18T22:25:49.694Z,26.30
2019-03-18T22:28:22.180Z,26.20
2019-03-18T22:30:54.774Z,26.10
2019-03-18T22:33:27.280Z,26.10
2019-03-18T22:35:59.926Z,26.10
2019-03-18T22:38:32.599Z,26.00
2019-03-18T22:41:05.039Z,26.00
2019-03-18T22:43:37.369Z,26.00
2019-03-18T22:46:10.129Z,26.10
2019-03-18T22:48:42.551Z,26.00
2019-03-18T22:51:15.942Z,26.00
2019-03-18T22:53:48.496Z,25.90
2019-03-18T22:56:21.255Z,25.90
2019-03-18T22:58:55.007Z,25.80
2019-03-18T23:01:27.484Z,25.80
2019-03-18T23:04:00.177Z,25.80
2019-03-18T23:06:32.837Z,25.90
2019-03-18T23:09:05.948Z,25.90
2019-03-18T23:11:38.768Z,25.90
2019-03-18T23:14:11.186Z,25.80
2019-03-18T23:16:43.537Z,25.80
2019-03-18T23:19:15.984Z,25.70
2019-03-18T23:21:48.129Z,25.60
2019-03-18T23:24:20.824Z,25.60
2019-03-18T23:26:54.300Z,25.50
2019-03-18T23:29:27.649Z,25.60
2019-03-18T23:32:00.108Z,25.60
2019-03-18T23:34:32.974Z,25.50
2019-03-18T23:37:05.826Z,25.50
2019-03-18T23:39:38.755Z,25.50
2019-03-18T23:42:11.205Z,25.40
2019-03-18T23:44:44.056Z,25.40
2019-03-18T23:47:17.442Z,25.40
2019-03-18T23:49:50.074Z,25.50
2019-03-18T23:52:22.519Z,25.60
2019-03-18T23:54:55.114Z,25.60
2019-03-18T23:57:27.773Z,25.70
